Time;durP1;ratioP1;P1;durP2;ratioP2;P2;SDS_P1;SDS_P2;PMS_P1;PMS_P2;Temp;Humidity;BMP_temperature;BMP_pressure;BME280_temperature;BME280_humidity;BME280_pressure;Samples;Min_cycle;Max_cycle;Signal;HPM_P1;HPM_P2
2023/03/18 00:01:58;;;;;;;13.50;9.55;;;11.50;87.80;;;;;;5012603;28;20041;-59
2023/03/18 00:04:44;;;;;;;17.85;11.25;;;11.50;87.90;;;;;;5003480;28;20036;-56
2023/03/18 00:07:30;;;;;;;13.27;9.63;;;11.50;87.90;;;;;;5002595;28;20033;-58
2023/03/18 00:10:17;;;;;;;14.80;9.52;;;11.50;87.90;;;;;;5012171;28;20032;-60
2023/03/18 00:13:03;;;;;;;14.30;9.68;;;11.50;87.90;;;;;;4997772;28;20038;-59
2023/03/18 00:15:53;;;;;;;13.50;9.48;;;11.50;87.90;;;;;;5011171;28;20026;-56
2023/03/18 00:18:40;;;;;;;12.15;9.10;;;11.40;87.90;;;;;;5012001;28;20162;-54
2023/03/18 00:21:26;;;;;;;11.27;8.98;;;11.40;87.90;;;;;;5012638;28;20024;-57
2023/03/18 00:24:14;;;;;;;12.63;9.10;;;11.50;88.70;;;;;;5011923;28;20433;-58
2023/03/18 00:27:00;;;;;;;13.20;9.90;;;11.40;87.90;;;;;;5009871;28;20025;-60
2023/03/18 00:29:45;;;;;;;13.50;10.10;;;11.40;88.00;;;;;;5012053;28;20026;-60
2023/03/18 00:32:33;;;;;;;13.75;10.25;;;11.40;88.60;;;;;;5010494;28;20052;-58
2023/03/18 00:35:19;;;;;;;12.35;9.07;;;11.30;88.10;;;;;;5007042;28;20030;-56
2023/03/18 00:38:06;;;;;;;13.98;9.57;;;11.30;88.10;;;;;;4976943;28;20038;-57
2023/03/18 00:40:52;;;;;;;14.70;9.23;;;11.30;88.10;;;;;;4998296;28;20053;-59
2023/03/18 00:43:53;;;;;;;10.80;8.77;;;11.30;88.20;;;;;;5012123;28;20038;-57
2023/03/18 00:46:39;;;;;;;15.55;9.07;;;11.30;88.20;;;;;;5010542;28;20046;-57
2023/03/18 00:49:25;;;;;;;12.15;8.60;;;11.30;88.20;;;;;;5011382;28;20474;-59
2023/03/18 00:52:11;;;;;;;14.13;8.60;;;11.40;88.40;;;;;;4998040;28;20120;-58
2023/03/18 00:54:57;;;;;;;10.85;9.10;;;11.40;88.20;;;;;;4992209;28;20027;-57
2023/03/18 00:57:43;;;;;;;11.35;8.73;;;11.30;88.30;;;;;;4995912;28;20033;-59
2023/03/18 01:00:29;;;;;;;12.40;9.20;;;11.30;88.40;;;;;;4996371;28;20117;-57
2023/03/18 01:03:15;;;;;;;9.80;8.65;;;11.40;88.50;;;;;;5011774;28;20458;-59
2023/03/18 01:06:03;;;;;;;10.65;8.43;;;11.40;88.60;;;;;;4983846;28;20479;-59
2023/03/18 01:08:50;;;;;;;12.38;9.32;;;11.30;88.60;;;;;;5010490;28;20037;-57
2023/03/18 01:11:36;;;;;;;14.63;9.20;;;11.30;88.60;;;;;;5009946;28;20026;-57
2023/03/18 01:14:22;;;;;;;13.10;8.80;;;11.30;88.70;;;;;;5010626;28;20053;-58
2023/03/18 01:17:08;;;;;;;11.73;8.70;;;11.20;88.80;;;;;;5009646;28;20782;-57
2023/03/18 01:19:55;;;;;;;12.32;8.60;;;11.30;88.90;;;;;;5011220;28;20060;-58
2023/03/18 01:22:41;;;;;;;11.63;9.48;;;11.30;89.00;;;;;;5011604;28;20575;-58
2023/03/18 01:25:27;;;;;;;10.55;8.68;;;11.20;89.00;;;;;;5010130;28;20512;-56
2023/03/18 01:28:14;;;;;;;13.23;10.07;;;11.30;89.30;;;;;;5009731;28;20663;-58
2023/03/18 01:31:00;;;;;;;11.93;9.25;;;11.30;90.00;;;;;;5010485;28;20039;-58
2023/03/18 01:33:46;;;;;;;12.93;9.25;;;11.30;89.40;;;;;;4997624;28;20085;-57
2023/03/18 01:36:33;;;;;;;12.15;9.43;;;11.20;89.40;;;;;;5008075;28;20030;-57
2023/03/18 01:39:19;;;;;;;11.10;8.75;;;11.30;89.40;;;;;;5001185;28;20521;-57
2023/03/18 01:42:05;;;;;;;12.48;8.55;;;11.30;89.50;;;;;;4987476;28;20030;-54
2023/03/18 01:45:18;;;;;;;13.07;8.52;;;11.20;89.60;;;;;;5004820;28;20064;-57
2023/03/18 01:48:04;;;;;;;11.23;8.60;;;11.30;89.80;;;;;;5007647;28;20406;-61
2023/03/18 01:50:58;;;;;;;13.30;9.70;;;11.30;89.60;;;;;;5009347;28;20034;-58
2023/03/18 01:53:47;;;;;;;15.82;9.32;;;11.30;89.70;;;;;;5012833;28;20025;-58
2023/03/18 01:56:36;;;;;;;14.32;9.38;;;11.30;89.60;;;;;;5012766;28;20410;-54
2023/03/18 01:59:25;;;;;;;13.18;8.85;;;11.20;89.70;;;;;;5014286;28;20030;-58
2023/03/18 02:02:13;;;;;;;14.00;9.93;;;11.20;90.00;;;;;;5012787;28;20026;-58
2023/03/18 02:05:05;;;;;;;12.65;8.55;;;11.20;90.00;;;;;;4999890;28;20407;-56
2023/03/18 02:07:51;;;;;;;11.98;9.13;;;11.20;90.00;;;;;;5015269;28;20037;-57
2023/03/18 02:10:37;;;;;;;12.07;9.32;;;11.20;90.00;;;;;;5013753;28;20029;-60
2023/03/18 02:13:26;;;;;;;13.88;9.50;;;11.20;89.90;;;;;;5012844;28;20030;-58
2023/03/18 02:16:21;;;;;;;11.77;9.20;;;11.10;90.10;;;;;;5012193;28;20022;-57
2023/03/18 02:19:36;;;;;;;12.60;9.10;;;11.00;90.20;;;;;;5015055;28;20096;-58
2023/03/18 02:22:42;;;;;;;11.63;8.82;;;11.00;90.10;;;;;;4975659;28;20526;-58
2023/03/18 02:25:52;;;;;;;12.00;8.80;;;10.90;90.30;;;;;;4999668;28;20042;-56
2023/03/18 02:28:40;;;;;;;12.45;9.02;;;10.90;90.60;;;;;;5012940;28;20030;-59
2023/03/18 02:31:26;;;;;;;13.85;9.88;;;11.00;90.40;;;;;;5012325;28;20085;-57
2023/03/18 02:34:14;;;;;;;14.50;9.02;;;10.90;90.40;;;;;;5014624;28;20088;-56
2023/03/18 02:37:00;;;;;;;12.48;8.95;;;11.00;90.50;;;;;;5014053;28;20037;-54
2023/03/18 02:39:47;;;;;;;13.25;9.75;;;11.00;90.40;;;;;;5013852;28;21553;-54
2023/03/18 02:42:33;;;;;;;12.52;9.07;;;11.00;90.70;;;;;;5012694;28;20030;-56
2023/03/18 02:45:58;;;;;;;13.80;9.40;;;11.00;90.40;;;;;;5014333;28;20061;-50
2023/03/18 02:48:45;;;;;;;14.35;9.30;;;11.00;90.40;;;;;;5004808;28;20116;-56
2023/03/18 02:51:32;;;;;;;12.13;8.73;;;11.00;90.50;;;;;;5010358;28;20421;-58
2023/03/18 02:54:27;;;;;;;14.50;9.60;;;10.90;90.60;;;;;;4995806;28;20414;-57
2023/03/18 02:57:13;;;;;;;13.02;9.10;;;10.90;90.70;;;;;;5001200;28;20483;-58
2023/03/18 02:59:59;;;;;;;14.52;8.80;;;10.90;90.80;;;;;;4996941;28;20038;-53
2023/03/18 03:02:45;;;;;;;12.35;8.55;;;10.90;90.80;;;;;;5008202;28;20027;-57
2023/03/18 03:05:33;;;;;;;10.57;8.73;;;10.90;90.80;;;;;;5012465;28;20033;-53
2023/03/18 03:08:19;;;;;;;12.60;8.68;;;10.90;90.80;;;;;;5011345;28;20482;-55
2023/03/18 03:11:05;;;;;;;10.98;9.23;;;10.80;90.80;;;;;;5011434;28;20037;-57
2023/03/18 03:13:51;;;;;;;10.98;8.15;;;10.80;90.90;;;;;;4985664;28;20084;-58
2023/03/18 03:16:38;;;;;;;9.55;8.07;;;10.90;90.90;;;;;;4982624;28;20037;-53
2023/03/18 03:19:24;;;;;;;14.38;8.95;;;10.80;90.90;;;;;;4976655;28;20096;-56
2023/03/18 03:22:10;;;;;;;11.70;8.63;;;10.80;91.10;;;;;;5004757;28;20045;-55
2023/03/18 03:24:57;;;;;;;9.68;7.80;;;10.80;91.20;;;;;;5013030;28;20065;-55
2023/03/18 03:27:43;;;;;;;11.57;8.23;;;10.80;91.20;;;;;;5012637;28;20026;-57
2023/03/18 03:30:29;;;;;;;12.38;8.23;;;10.80;91.30;;;;;;4997520;28;20068;-57
2023/03/18 03:33:15;;;;;;;12.20;8.35;;;10.60;91.40;;;;;;5013071;28;20030;-58
2023/03/18 03:36:01;;;;;;;10.15;8.27;;;10.60;91.50;;;;;;5012408;28;20034;-56
2023/03/18 03:38:47;;;;;;;10.27;7.65;;;10.70;91.60;;;;;;5012395;28;20144;-57
2023/03/18 03:41:33;;;;;;;11.98;7.72;;;10.70;91.60;;;;;;5012181;28;20022;-59
2023/03/18 03:44:19;;;;;;;12.77;8.32;;;10.80;91.50;;;;;;5012333;28;20058;-58
2023/03/18 03:47:06;;;;;;;9.43;7.63;;;10.80;91.60;;;;;;4992287;28;20442;-56
2023/03/18 03:49:52;;;;;;;9.85;6.95;;;10.70;91.60;;;;;;4995491;28;20169;-56
2023/03/18 03:52:38;;;;;;;11.70;7.68;;;10.80;91.60;;;;;;5012618;28;20113;-57
2023/03/18 03:55:24;;;;;;;10.30;7.32;;;10.80;91.60;;;;;;4996964;28;20052;-57
2023/03/18 03:58:10;;;;;;;10.43;6.95;;;10.80;91.70;;;;;;4998984;28;20168;-57
2023/03/18 04:00:56;;;;;;;8.52;6.80;;;10.80;91.70;;;;;;5012157;28;20065;-56
2023/03/18 04:03:42;;;;;;;9.38;6.55;;;10.80;91.70;;;;;;5012444;28;20521;-56
2023/03/18 04:06:28;;;;;;;7.68;6.25;;;10.90;91.80;;;;;;5010895;28;20041;-60
2023/03/18 04:09:16;;;;;;;9.38;6.15;;;10.80;91.90;;;;;;5012387;28;20034;-57
2023/03/18 04:12:02;;;;;;;6.80;6.10;;;10.80;91.90;;;;;;5011931;28;20034;-56
2023/03/18 04:14:48;;;;;;;9.77;6.20;;;10.80;92.00;;;;;;5012251;28;20025;-60
2023/03/18 04:17:35;;;;;;;7.65;6.05;;;10.70;92.10;;;;;;5012134;28;20022;-59
2023/03/18 04:20:21;;;;;;;8.95;6.20;;;10.80;92.10;;;;;;5011276;28;20073;-60
2023/03/18 04:23:08;;;;;;;8.82;6.63;;;10.80;92.10;;;;;;5011087;28;20622;-59
2023/03/18 04:25:54;;;;;;;8.18;6.07;;;10.70;92.30;;;;;;5024521;28;20045;-53
2023/03/18 04:28:40;;;;;;;9.95;6.30;;;10.80;92.40;;;;;;5014367;28;20026;-52
2023/03/18 04:31:27;;;;;;;8.48;6.07;;;10.70;92.60;;;;;;5030458;28;20030;-54
2023/03/18 04:34:13;;;;;;;8.77;5.82;;;10.60;92.80;;;;;;5027035;28;20069;-60
2023/03/18 04:36:59;;;;;;;9.52;6.22;;;10.50;93.10;;;;;;5022446;28;20029;-57
2023/03/18 04:39:46;;;;;;;8.57;6.18;;;10.50;93.10;;;;;;5011458;28;20030;-56
2023/03/18 04:42:32;;;;;;;8.93;6.00;;;10.50;93.20;;;;;;5011660;28;20041;-57
2023/03/18 04:45:18;;;;;;;8.73;5.80;;;10.50;93.30;;;;;;5010764;28;20034;-59
2023/03/18 04:48:04;;;;;;;7.25;5.82;;;10.50;93.50;;;;;;5011449;28;20030;-55
2023/03/18 04:50:50;;;;;;;9.15;5.78;;;10.60;93.40;;;;;;4997439;28;20414;-58
2023/03/18 04:53:37;;;;;;;7.47;5.65;;;10.60;93.40;;;;;;5011051;28;20499;-60
2023/03/18 04:56:23;;;;;;;8.68;6.25;;;10.50;93.60;;;;;;5012043;28;20080;-56
2023/03/18 04:59:09;;;;;;;8.95;6.95;;;10.50;93.90;;;;;;5010698;28;20038;-57
2023/03/18 05:01:55;;;;;;;17.55;11.43;;;10.60;93.70;;;;;;4996362;28;20064;-58
2023/03/18 05:04:41;;;;;;;9.32;7.05;;;10.60;93.70;;;;;;4992668;28;20030;-58
2023/03/18 05:07:27;;;;;;;8.43;5.60;;;10.70;93.80;;;;;;5001233;28;20470;-58
2023/03/18 05:10:13;;;;;;;8.18;5.82;;;10.70;93.70;;;;;;5000253;28;20040;-60
2023/03/18 05:13:00;;;;;;;7.97;5.95;;;10.70;93.70;;;;;;4996980;28;20032;-59
2023/03/18 05:15:46;;;;;;;7.78;5.95;;;10.80;93.70;;;;;;5010257;28;20034;-60
2023/03/18 05:18:32;;;;;;;7.78;5.78;;;10.80;93.70;;;;;;5014977;28;20076;-60
2023/03/18 05:21:18;;;;;;;6.25;5.38;;;10.90;93.50;;;;;;5005928;28;20138;-60
2023/03/18 05:24:04;;;;;;;13.60;8.68;;;10.90;93.60;;;;;;4994635;28;20033;-58
2023/03/18 05:26:50;;;;;;;9.25;6.90;;;10.90;93.80;;;;;;5015460;28;20113;-57
2023/03/18 05:29:39;;;;;;;7.93;5.32;;;10.90;93.80;;;;;;5014838;28;20145;-58
2023/03/18 05:32:25;;;;;;;6.20;5.15;;;10.90;93.80;;;;;;5013885;28;20501;-56
2023/03/18 05:35:11;;;;;;;8.82;5.22;;;10.90;93.90;;;;;;5008457;28;20068;-57
2023/03/18 05:37:57;;;;;;;9.10;6.05;;;10.90;94.00;;;;;;5013924;28;20100;-53
2023/03/18 05:40:43;;;;;;;7.30;5.38;;;10.90;93.90;;;;;;5014198;28;20025;-56
2023/03/18 05:43:30;;;;;;;5.85;5.25;;;10.90;93.80;;;;;;5007826;28;20444;-55
2023/03/18 05:46:16;;;;;;;7.60;6.10;;;10.90;93.80;;;;;;4980168;28;20414;-57
2023/03/18 05:49:02;;;;;;;7.70;6.07;;;11.00;93.80;;;;;;4993486;28;20030;-58
2023/03/18 05:51:49;;;;;;;7.30;5.85;;;11.00;93.90;;;;;;5014367;28;20033;-58
2023/03/18 05:54:35;;;;;;;11.38;8.93;;;11.00;93.90;;;;;;5013864;28;20030;-56
2023/03/18 05:57:22;;;;;;;10.63;9.13;;;11.10;93.90;;;;;;5013474;28;20053;-57
2023/03/18 06:00:08;;;;;;;8.77;6.53;;;11.10;93.90;;;;;;5013779;28;20049;-56
2023/03/18 06:02:58;;;;;;;6.88;5.68;;;11.10;93.90;;;;;;5014595;28;20430;-55
2023/03/18 06:05:44;;;;;;;7.65;5.30;;;11.10;94.00;;;;;;4998472;28;20022;-58
2023/03/18 06:08:30;;;;;;;16.17;11.50;;;11.20;93.90;;;;;;5014236;28;20040;-58
2023/03/18 06:11:17;;;;;;;10.02;7.97;;;11.20;93.90;;;;;;5012828;28;20602;-53
2023/03/18 06:14:04;;;;;;;12.43;7.20;;;11.20;94.00;;;;;;5012441;28;20037;-55
2023/03/18 06:16:50;;;;;;;9.43;6.25;;;11.20;94.00;;;;;;5013172;28;20110;-58
2023/03/18 06:19:36;;;;;;;9.98;5.35;;;11.20;94.10;;;;;;4993955;28;20033;-58
2023/03/18 06:22:22;;;;;;;9.65;5.97;;;11.20;94.40;;;;;;5010114;28;20056;-58
2023/03/18 06:25:08;;;;;;;8.43;5.53;;;11.20;94.10;;;;;;5006417;28;20041;-56
2023/03/18 06:27:54;;;;;;;32.72;22.83;;;11.30;94.10;;;;;;4980109;28;20037;-59
2023/03/18 06:30:40;;;;;;;13.77;10.25;;;11.30;94.10;;;;;;4995625;28;20065;-55
2023/03/18 06:33:27;;;;;;;11.25;7.85;;;11.40;94.00;;;;;;5013168;28;20026;-58
2023/03/18 06:36:15;;;;;;;7.38;6.00;;;11.40;94.00;;;;;;5014149;28;20459;-58
2023/03/18 06:39:01;;;;;;;12.48;5.82;;;11.50;94.00;;;;;;5013923;28;20026;-58
2023/03/18 06:41:47;;;;;;;7.78;5.57;;;11.50;94.00;;;;;;5014070;28;20065;-55
2023/03/18 06:44:34;;;;;;;6.65;5.45;;;11.50;93.90;;;;;;5011972;28;20018;-58
2023/03/18 06:47:21;;;;;;;6.93;5.22;;;11.50;94.00;;;;;;5011936;28;20041;-55
2023/03/18 06:50:08;;;;;;;7.63;5.32;;;11.60;94.00;;;;;;5013721;28;20038;-56
2023/03/18 06:52:54;;;;;;;8.35;5.50;;;11.60;94.00;;;;;;5013359;28;20146;-58
2023/03/18 06:55:40;;;;;;;11.02;6.30;;;11.70;94.00;;;;;;4998330;28;20118;-60
2023/03/18 06:58:26;;;;;;;11.20;5.70;;;11.90;93.90;;;;;;4993734;28;20031;-58
2023/03/18 07:01:12;;;;;;;7.22;6.03;;;11.90;93.80;;;;;;4995618;28;20443;-52
2023/03/18 07:03:59;;;;;;;10.00;6.57;;;12.00;93.80;;;;;;5011252;28;20046;-55
2023/03/18 07:06:45;;;;;;;8.35;6.00;;;12.00;93.80;;;;;;5005933;28;20026;-61
2023/03/18 07:09:32;;;;;;;11.98;6.30;;;12.10;93.60;;;;;;5012576;28;20521;-58
2023/03/18 07:12:18;;;;;;;9.30;6.38;;;12.20;93.60;;;;;;4998409;28;20557;-58
2023/03/18 07:15:04;;;;;;;11.35;6.95;;;12.10;93.60;;;;;;5013371;28;20427;-57
2023/03/18 07:17:51;;;;;;;11.63;6.57;;;12.10;93.60;;;;;;4993145;28;20049;-57
2023/03/18 07:20:37;;;;;;;9.52;6.88;;;12.10;93.70;;;;;;4995048;28;20062;-57
2023/03/18 07:23:23;;;;;;;14.75;7.47;;;12.10;93.60;;;;;;5012299;28;20026;-57
2023/03/18 07:26:12;;;;;;;13.23;6.93;;;12.10;93.80;;;;;;4997119;28;20101;-56
2023/03/18 07:28:58;;;;;;;11.00;6.95;;;12.00;94.00;;;;;;5009898;28;20029;-56
2023/03/18 07:31:44;;;;;;;14.32;7.43;;;12.10;94.00;;;;;;5007198;28;20105;-55
2023/03/18 07:34:30;;;;;;;12.02;6.95;;;12.20;94.00;;;;;;5002209;28;20059;-61
2023/03/18 07:37:16;;;;;;;11.30;7.22;;;12.30;94.00;;;;;;5004409;28;20030;-59
2023/03/18 07:40:02;;;;;;;12.27;6.65;;;12.40;94.20;;;;;;4993400;28;20442;-57
2023/03/18 07:42:50;;;;;;;10.70;6.60;;;12.50;94.10;;;;;;5006860;28;20049;-56
2023/03/18 07:45:37;;;;;;;10.70;6.93;;;12.50;94.10;;;;;;5011363;28;20064;-57
2023/03/18 07:48:23;;;;;;;15.98;8.15;;;12.50;94.30;;;;;;5010771;28;20057;-59
2023/03/18 07:51:09;;;;;;;14.77;7.07;;;12.50;94.60;;;;;;5011864;28;20040;-56
2023/03/18 07:53:55;;;;;;;17.63;7.15;;;12.60;94.20;;;;;;5011944;28;20038;-58
2023/03/18 07:56:41;;;;;;;13.13;7.38;;;12.60;94.10;;;;;;4997147;28;20064;-59
2023/03/18 07:59:27;;;;;;;16.38;8.98;;;12.70;94.20;;;;;;5010342;28;20026;-60
2023/03/18 08:02:14;;;;;;;12.98;8.02;;;12.70;94.10;;;;;;5012131;28;20057;-59
2023/03/18 08:05:02;;;;;;;10.80;7.28;;;12.80;94.10;;;;;;5010684;28;20018;-58
2023/03/18 08:07:48;;;;;;;20.65;7.55;;;12.90;94.00;;;;;;5012986;28;20025;-55
2023/03/18 08:10:34;;;;;;;13.05;8.32;;;12.90;94.00;;;;;;5011423;28;20026;-61
2023/03/18 08:13:20;;;;;;;18.08;10.98;;;12.90;93.90;;;;;;5009175;28;20038;-58
2023/03/18 08:16:06;;;;;;;13.73;10.23;;;12.90;93.80;;;;;;5011719;28;20080;-55
2023/03/18 08:18:52;;;;;;;10.70;7.75;;;13.00;93.60;;;;;;5010855;28;20022;-53
2023/03/18 08:21:38;;;;;;;11.48;8.30;;;13.00;93.60;;;;;;5011788;28;20026;-53
2023/03/18 08:24:24;;;;;;;10.18;7.38;;;13.00;93.50;;;;;;5011000;28;20022;-56
2023/03/18 08:27:11;;;;;;;10.02;7.20;;;13.10;93.50;;;;;;5006088;28;20048;-59
2023/03/18 08:29:57;;;;;;;13.30;8.05;;;13.20;93.30;;;;;;5002516;28;20073;-52
2023/03/18 08:32:43;;;;;;;12.07;7.72;;;13.40;93.20;;;;;;5002219;28;20108;-54
2023/03/18 08:35:29;;;;;;;14.18;9.25;;;13.50;93.20;;;;;;5012602;28;20026;-56
2023/03/18 08:38:15;;;;;;;10.65;7.70;;;13.60;93.10;;;;;;5007599;28;20517;-56
2023/03/18 08:41:02;;;;;;;20.40;12.50;;;13.70;93.00;;;;;;5008969;28;20080;-56
2023/03/18 08:43:51;;;;;;;12.25;8.82;;;13.60;93.00;;;;;;4984373;28;20108;-54
2023/03/18 08:46:37;;;;;;;12.68;8.15;;;13.70;93.00;;;;;;5010452;28;20406;-50
2023/03/18 08:49:24;;;;;;;13.43;8.73;;;13.50;93.50;;;;;;5011636;28;20466;-55
2023/03/18 08:52:10;;;;;;;21.23;13.27;;;13.50;93.40;;;;;;4981425;28;20061;-54
2023/03/18 08:54:57;;;;;;;15.07;10.15;;;13.60;93.50;;;;;;5011200;28;20052;-54
2023/03/18 08:57:43;;;;;;;12.40;8.75;;;13.60;93.50;;;;;;5010786;28;20029;-56
2023/03/18 09:00:29;;;;;;;15.02;9.30;;;13.60;93.50;;;;;;5010446;28;20065;-56
2023/03/18 09:03:15;;;;;;;15.65;9.90;;;13.60;93.60;;;;;;5005274;28;20057;-54
2023/03/18 09:06:02;;;;;;;17.33;10.48;;;13.70;93.50;;;;;;5010323;28;20053;-52
2023/03/18 09:08:48;;;;;;;13.75;8.68;;;13.80;93.50;;;;;;5014893;28;20113;-54
2023/03/18 09:11:35;;;;;;;15.60;9.38;;;13.80;93.30;;;;;;5014930;28;20058;-56
2023/03/18 09:14:22;;;;;;;24.92;14.80;;;13.80;93.10;;;;;;5000601;28;20509;-55
2023/03/18 09:17:08;;;;;;;20.92;11.27;;;13.90;93.20;;;;;;4999597;28;20030;-51
2023/03/18 09:19:55;;;;;;;20.95;13.30;;;14.00;93.20;;;;;;5012722;28;20026;-54
2023/03/18 09:22:43;;;;;;;12.05;8.85;;;14.20;93.20;;;;;;4995739;28;20423;-53
2023/03/18 09:25:29;;;;;;;12.60;7.75;;;14.20;93.10;;;;;;4996145;28;20023;-51
2023/03/18 09:28:15;;;;;;;10.63;7.60;;;14.30;92.90;;;;;;5000776;28;20054;-49
2023/03/18 09:31:01;;;;;;;11.75;6.93;;;14.40;92.90;;;;;;5006429;28;20030;-51
2023/03/18 09:33:47;;;;;;;13.43;7.80;;;14.40;92.80;;;;;;5006136;28;20117;-56
2023/03/18 09:36:33;;;;;;;11.18;7.28;;;14.40;92.90;;;;;;4995607;28;20034;-57
2023/03/18 09:39:19;;;;;;;13.35;7.65;;;14.50;92.90;;;;;;4990562;28;20446;-51
2023/03/18 09:42:55;;;;;;;8.07;5.90;;;14.50;93.00;;;;;;5008289;28;20057;-55
2023/03/18 09:46:32;;;;;;;11.15;5.88;;;14.60;92.90;;;;;;4920051;28;20020;-51
2023/03/18 09:49:30;;;;;;;10.15;6.88;;;14.70;92.90;;;;;;4959683;28;20490;-56
2023/03/18 09:52:34;;;;;;;12.07;7.53;;;14.90;93.00;;;;;;4996713;28;20113;-55
2023/03/18 09:55:38;;;;;;;10.70;7.85;;;14.90;92.80;;;;;;5024700;28;20080;-54
2023/03/18 09:58:27;;;;;;;10.27;7.00;;;14.90;92.80;;;;;;5012839;28;20033;-53
2023/03/18 10:01:15;;;;;;;12.85;6.88;;;15.00;92.90;;;;;;5013988;28;20030;-49
2023/03/18 10:04:19;;;;;;;7.72;5.95;;;15.20;93.00;;;;;;5010611;28;20034;-49
2023/03/18 10:07:13;;;;;;;9.45;6.28;;;15.50;93.00;;;;;;5012365;28;20022;-52
2023/03/18 10:10:06;;;;;;;9.18;6.53;;;15.70;92.80;;;;;;5005938;28;20030;-51
2023/03/18 10:13:20;;;;;;;13.55;8.93;;;15.80;92.80;;;;;;4998346;28;20022;-54
2023/03/18 10:16:15;;;;;;;9.52;6.20;;;15.90;92.70;;;;;;5013696;28;20033;-53
2023/03/18 10:19:02;;;;;;;9.45;6.78;;;16.00;92.90;;;;;;5012728;28;20025;-55
2023/03/18 10:22:11;;;;;;;5.82;4.80;;;16.20;92.50;;;;;;5000909;28;20041;-57
2023/03/18 10:25:32;;;;;;;5.57;4.47;;;16.40;93.10;;;;;;4999615;28;20049;-56
2023/03/18 10:29:00;;;;;;;6.05;3.55;;;16.60;93.70;;;;;;5011268;28;20041;-49
2023/03/18 10:32:20;;;;;;;5.22;3.08;;;16.90;93.80;;;;;;4984575;28;20030;-50
2023/03/18 10:35:28;;;;;;;4.45;3.15;;;16.80;93.70;;;;;;5006936;28;20124;-52
2023/03/18 10:38:23;;;;;;;5.40;3.28;;;16.70;93.80;;;;;;5009153;28;20034;-51
2023/03/18 10:41:20;;;;;;;7.30;3.63;;;16.40;94.00;;;;;;5010555;28;20449;-52
2023/03/18 10:44:29;;;;;;;6.25;3.55;;;16.40;94.20;;;;;;5008526;28;20463;-47
2023/03/18 10:47:31;;;;;;;5.55;3.85;;;16.40;94.40;;;;;;5007362;28;20029;-50
2023/03/18 10:50:32;;;;;;;7.65;4.13;;;16.30;94.70;;;;;;4991384;28;20029;-47
2023/03/18 10:53:52;;;;;;;10.23;4.20;;;16.20;94.70;;;;;;5011777;28;20068;-49
2023/03/18 10:56:42;;;;;;;5.88;3.65;;;16.10;94.50;;;;;;4993336;28;20078;-51
2023/03/18 10:59:28;;;;;;;6.72;3.70;;;16.00;94.80;;;;;;5001153;28;20433;-49
2023/03/18 11:02:26;;;;;;;7.28;3.90;;;16.10;94.90;;;;;;5011801;28;20450;-53
2023/03/18 11:05:27;;;;;;;7.78;3.92;;;16.10;94.70;;;;;;5013068;28;20398;-52
2023/03/18 11:08:35;;;;;;;6.47;4.15;;;16.10;94.60;;;;;;5012708;28;20080;-52
2023/03/18 11:11:25;;;;;;;6.70;4.00;;;15.90;94.90;;;;;;5011675;28;20122;-48
2023/03/18 11:14:21;;;;;;;5.20;4.05;;;15.90;94.60;;;;;;5013175;28;20029;-48
2023/03/18 11:17:26;;;;;;;5.72;4.32;;;15.90;94.70;;;;;;4998772;28;20036;-51
2023/03/18 11:20:19;;;;;;;5.85;3.85;;;16.10;94.10;;;;;;5014178;28;20032;-48
2023/03/18 11:23:12;;;;;;;4.85;3.40;;;16.10;94.40;;;;;;5013012;28;20149;-51
2023/03/18 11:25:58;;;;;;;5.68;4.00;;;16.10;94.20;;;;;;4997382;28;20031;-53
2023/03/18 11:28:45;;;;;;;4.72;4.13;;;16.10;94.10;;;;;;4993438;28;20038;-48
2023/03/18 11:31:31;;;;;;;7.22;4.78;;;16.10;94.20;;;;;;4993050;28;20030;-52
2023/03/18 11:34:18;;;;;;;8.13;4.70;;;16.20;94.50;;;;;;4993300;28;20062;-53
2023/03/18 11:37:09;;;;;;;11.23;4.60;;;16.20;94.40;;;;;;4992897;28;20399;-49
2023/03/18 11:40:17;;;;;;;6.47;4.35;;;16.40;94.40;;;;;;4993148;28;20023;-48
2023/03/18 11:43:19;;;;;;;5.80;3.95;;;16.60;94.20;;;;;;4993119;28;20091;-52
2023/03/18 11:46:11;;;;;;;6.22;4.25;;;16.60;93.70;;;;;;4992189;28;20110;-51
2023/03/18 11:48:58;;;;;;;7.97;4.10;;;16.80;93.60;;;;;;4992223;28;20110;-50
2023/03/18 11:52:05;;;;;;;6.55;4.28;;;16.90;93.50;;;;;;5009347;28;20037;-52
2023/03/18 11:55:17;;;;;;;8.18;4.63;;;17.00;93.40;;;;;;5012023;28;20029;-54
2023/03/18 11:58:27;;;;;;;8.00;4.50;;;17.10;93.20;;;;;;5011832;28;20102;-55
2023/03/18 12:01:25;;;;;;;6.80;4.18;;;17.10;93.10;;;;;;4992538;28;20034;-48
2023/03/18 12:04:34;;;;;;;14.18;4.75;;;17.40;92.80;;;;;;4992172;28;20057;-51
2023/03/18 12:08:00;;;;;;;5.15;3.85;;;17.30;92.00;;;;;;4992430;28;20030;-50
2023/03/18 12:11:10;;;;;;;8.60;4.88;;;17.40;92.10;;;;;;4992326;28;20050;-56
2023/03/18 12:14:20;;;;;;;5.97;3.78;;;17.30;92.00;;;;;;4971920;28;20526;-51
2023/03/18 12:17:32;;;;;;;7.13;3.70;;;17.40;92.10;;;;;;4991681;28;20491;-53
2023/03/18 12:20:27;;;;;;;7.43;4.40;;;17.60;91.60;;;;;;4991582;28;20523;-56
2023/03/18 12:23:43;;;;;;;5.88;4.45;;;17.80;91.50;;;;;;4991927;28;20033;-50
2023/03/18 12:26:39;;;;;;;5.93;4.32;;;17.80;91.60;;;;;;5006621;28;20105;-54
2023/03/18 12:29:37;;;;;;;6.18;4.22;;;17.80;91.20;;;;;;5011418;28;20021;-51
2023/03/18 12:32:38;;;;;;;7.00;3.80;;;17.70;91.20;;;;;;5011793;28;20022;-50
2023/03/18 12:35:24;;;;;;;5.47;3.92;;;17.80;91.10;;;;;;5011116;28;20464;-53
2023/03/18 12:38:44;;;;;;;5.15;4.05;;;18.00;91.10;;;;;;5010909;28;20045;-49
2023/03/18 12:41:54;;;;;;;6.70;3.63;;;17.90;91.30;;;;;;5010713;28;20536;-48
2023/03/18 12:44:57;;;;;;;7.82;3.85;;;18.00;91.30;;;;;;5011777;28;20030;-50
2023/03/18 12:47:55;;;;;;;7.85;3.60;;;18.30;90.80;;;;;;5011460;28;20496;-51
2023/03/18 12:50:47;;;;;;;5.90;3.55;;;18.30;90.30;;;;;;5011704;28;20037;-47
2023/03/18 12:53:39;;;;;;;4.97;3.40;;;18.40;90.40;;;;;;5010100;28;20119;-50
2023/03/18 12:56:29;;;;;;;5.88;4.22;;;18.50;90.30;;;;;;5010213;28;20030;-55
2023/03/18 12:59:37;;;;;;;6.13;4.15;;;18.70;90.00;;;;;;5011005;28;20113;-48
2023/03/18 13:02:49;;;;;;;5.63;3.40;;;18.80;89.00;;;;;;5010551;28;20022;-49
2023/03/18 13:05:45;;;;;;;9.95;3.60;;;18.90;85.70;;;;;;5010979;28;20486;-51
2023/03/18 13:08:53;;;;;;;5.78;3.20;;;18.90;85.60;;;;;;5010631;28;20030;-54
2023/03/18 13:12:00;;;;;;;5.80;3.65;;;19.00;85.40;;;;;;4996422;28;20053;-50
2023/03/18 13:14:57;;;;;;;5.43;3.53;;;19.00;85.90;;;;;;5011034;28;20030;-51
2023/03/18 13:17:47;;;;;;;5.03;3.20;;;18.90;86.30;;;;;;5010128;28;20513;-50
2023/03/18 13:20:36;;;;;;;6.55;3.65;;;19.20;85.40;;;;;;5011064;28;20026;-51
2023/03/18 13:23:34;;;;;;;5.68;3.47;;;19.40;84.50;;;;;;5010915;28;20030;-54
2023/03/18 13:26:41;;;;;;;6.10;3.75;;;19.40;84.10;;;;;;4996023;28;20023;-52
2023/03/18 13:29:39;;;;;;;5.57;3.47;;;19.40;84.10;;;;;;4990198;28;20026;-53
2023/03/18 13:32:46;;;;;;;6.60;3.35;;;19.40;82.80;;;;;;4991089;28;20037;-51
2023/03/18 13:35:44;;;;;;;4.15;3.00;;;19.50;82.60;;;;;;4991020;28;20022;-53
2023/03/18 13:39:18;;;;;;;6.75;3.28;;;19.60;82.90;;;;;;4992582;28;20022;-50
2023/03/18 13:42:28;;;;;;;5.22;3.20;;;19.80;82.90;;;;;;4966057;28;20427;-52
2023/03/18 13:45:30;;;;;;;5.47;3.13;;;20.00;81.90;;;;;;4994512;28;20549;-52
2023/03/18 13:48:29;;;;;;;5.75;3.00;;;20.30;81.50;;;;;;4993747;28;20511;-49
2023/03/18 13:51:24;;;;;;;5.38;3.40;;;20.20;81.50;;;;;;4992934;28;20058;-53
2023/03/18 13:54:17;;;;;;;5.18;3.10;;;20.10;80.80;;;;;;5014012;28;20032;-47
2023/03/18 13:57:25;;;;;;;4.18;3.28;;;20.40;80.70;;;;;;5013886;28;20034;-53
2023/03/18 14:00:26;;;;;;;4.43;3.13;;;20.40;79.60;;;;;;5013685;28;20030;-51
2023/03/18 14:03:28;;;;;;;6.63;3.40;;;20.40;79.70;;;;;;5014680;28;20049;-52
2023/03/18 14:06:44;;;;;;;4.85;2.60;;;20.20;80.00;;;;;;5013561;28;20033;-51
2023/03/18 14:09:34;;;;;;;5.57;3.50;;;20.20;80.30;;;;;;5014345;28;20018;-52
2023/03/18 14:12:37;;;;;;;7.70;3.22;;;20.10;80.80;;;;;;5013690;28;20044;-55
2023/03/18 14:15:43;;;;;;;7.35;3.72;;;20.30;79.90;;;;;;5013598;28;20474;-49
2023/03/18 14:18:32;;;;;;;4.72;3.10;;;19.90;80.20;;;;;;5014085;28;20441;-50
2023/03/18 14:21:26;;;;;;;4.68;3.15;;;19.50;80.90;;;;;;5013696;28;20410;-53
2023/03/18 14:24:21;;;;;;;5.53;3.03;;;19.50;81.10;;;;;;5013649;28;20037;-57
2023/03/18 14:27:16;;;;;;;4.15;3.22;;;19.70;81.00;;;;;;4994331;28;20026;-50
2023/03/18 14:30:21;;;;;;;;;;;19.70;80.90;;;;;;4996207;28;20433;-49
2023/03/18 14:33:16;;;;;;;4.72;3.22;;;19.80;81.40;;;;;;4995172;28;19917;-51
2023/03/18 14:36:12;;;;;;;;;;;20.10;80.40;;;;;;4994802;28;20018;-50
2023/03/18 14:39:02;;;;;;;7.03;3.08;;;20.30;79.40;;;;;;4994315;28;20386;-56
2023/03/18 14:41:54;;;;;;;6.95;3.78;;;20.50;79.20;;;;;;4994643;28;20065;-52
2023/03/18 14:44:45;;;;;;;8.07;3.63;;;20.70;78.10;;;;;;4993837;28;20037;-50
2023/03/18 14:47:43;;;;;;;5.95;3.10;;;20.50;78.00;;;;;;4978001;28;20030;-55